Time,TemperatureF,DewpointF,PressureIn,WindDirection,WindDirectionDegrees,WindSpeedMPH,WindSpeedGustMPH,Humidity,HourlyPrecipIn,Conditions,Clouds,dailyrainin,SolarRadiationWatts/m^2,SoftwareType,DateUTC
2013-09-11 00:02:00,59.0,37.0,-100.00,NNE,19,10.0,13.0,44,0.00,,,0.00,0.000000,,2013-09-11 06:02:00,
2013-09-11 00:42:00,58.0,37.0,-100.00,NNE,14,9.0,12.0,46,0.00,,,0.00,0.000000,,2013-09-11 06:42:00,
2013-09-11 00:52:00,58.0,37.0,-100.00,NNE,14,9.0,12.0,46,0.00,,,0.00,0.000000,,2013-09-11 06:52:00,
2013-09-11 01:01:00,58.0,37.0,-100.00,NNE,14,9.0,12.0,46,0.00,,,0.00,0.000000,,2013-09-11 07:01:00,
2013-09-11 01:42:00,57.0,37.0,-100.00,North,4,10.0,14.0,47,0.00,,,0.00,0.000000,,2013-09-11 07:42:00,
2013-09-11 01:52:00,57.0,37.0,-100.00,North,4,10.0,14.0,47,0.00,,,0.00,0.000000,,2013-09-11 07:52:00,
2013-09-11 02:02:00,57.0,37.0,-100.00,North,4,10.0,14.0,47,0.00,,,0.00,0.000000,,2013-09-11 08:02:00,
2013-09-11 02:42:00,56.0,37.0,-100.00,NNE,20,10.0,14.0,48,0.00,,,0.00,0.000000,,2013-09-11 08:42:00,
2013-09-11 02:52:00,56.0,37.0,-100.00,NNE,20,10.0,14.0,48,0.00,,,0.00,0.000000,,2013-09-11 08:52:00,
2013-09-11 03:01:00,56.0,37.0,-100.00,NNE,20,10.0,14.0,48,0.00,,,0.00,0.000000,,2013-09-11 09:01:00,
2013-09-11 03:43:00,56.0,37.0,-100.00,North,9,9.0,12.0,49,0.00,,,0.00,0.000000,,2013-09-11 09:43:00,
2013-09-11 03:53:00,56.0,37.0,-100.00,North,9,9.0,12.0,49,0.00,,,0.00,0.000000,,2013-09-11 09:53:00,
2013-09-11 04:02:00,56.0,37.0,-100.00,North,9,9.0,12.0,49,0.00,,,0.00,0.000000,,2013-09-11 10:02:00,
2013-09-11 04:43:00,56.0,36.0,-100.00,North,7,9.0,14.0,47,0.00,,,0.00,0.000000,,2013-09-11 10:43:00,
2013-09-11 04:53:00,56.0,36.0,-100.00,North,7,9.0,14.0,47,0.00,,,0.00,0.000000,,2013-09-11 10:53:00,
2013-09-11 05:02:00,56.0,36.0,-100.00,North,7,9.0,14.0,47,0.00,,,0.00,0.000000,,2013-09-11 11:02:00,
2013-09-11 05:42:00,54.0,37.0,-100.00,NNE,13,9.0,13.0,52,0.00,,,-99.99,0.000000,,2013-09-11 11:42:00,
2013-09-11 05:52:00,54.0,37.0,-100.00,NNE,13,9.0,13.0,52,0.00,,,-99.99,0.000000,,2013-09-11 11:52:00,
2013-09-11 06:01:00,54.0,37.0,-100.00,NNE,13,9.0,13.0,52,0.00,,,-99.99,0.000000,,2013-09-11 12:01:00,
2013-09-11 06:42:00,54.0,37.0,-100.00,North,6,10.0,14.0,52,0.00,,,-99.99,0.000000,,2013-09-11 12:42:00,
2013-09-11 06:52:00,54.0,37.0,-100.00,North,6,10.0,14.0,52,0.00,,,-99.99,0.000000,,2013-09-11 12:52:00,
2013-09-11 07:02:00,54.0,37.0,-100.00,North,6,10.0,14.0,52,0.00,,,-99.99,0.000000,,2013-09-11 13:02:00,
2013-09-11 07:42:00,54.0,38.0,-100.00,North,3,9.0,15.0,54,-99.99,,,0.00,1.000000,,2013-09-11 13:42:00,
2013-09-11 08:42:00,55.0,38.0,-100.00,North,5,10.0,14.0,53,-99.99,,,0.00,25.000000,,2013-09-11 14:42:00,
2013-09-11 09:43:00,58.0,38.0,-100.00,North,6,11.0,16.0,48,-99.99,,,0.00,29.000000,,2013-09-11 15:43:00,
2013-09-11 09:54:00,58.0,38.0,-100.00,North,6,11.0,16.0,48,-99.99,,,0.00,29.000000,,2013-09-11 15:54:00,
2013-09-11 10:03:00,58.0,38.0,-100.00,North,6,11.0,16.0,48,-99.99,,,0.00,29.000000,,2013-09-11 16:03:00,
2013-09-11 10:43:00,63.0,38.0,-100.00,NNE,12,8.0,14.0,40,0.00,,,0.00,325.000000,,2013-09-11 16:43:00,
2013-09-11 10:53:00,63.0,38.0,-100.00,NNE,12,8.0,14.0,40,0.00,,,0.00,325.000000,,2013-09-11 16:53:00,
2013-09-11 11:03:00,63.0,38.0,-100.00,NNE,12,8.0,14.0,40,0.00,,,0.00,325.000000,,2013-09-11 17:03:00,
2013-09-11 11:43:00,69.0,42.0,-100.00,ESE,113,4.0,10.0,37,0.00,,,0.00,648.000000,,2013-09-11 17:43:00,
2013-09-11 11:52:00,69.0,42.0,-100.00,ESE,113,4.0,10.0,37,0.00,,,0.00,648.000000,,2013-09-11 17:52:00,
2013-09-11 12:02:00,69.0,42.0,-100.00,ESE,113,4.0,10.0,37,0.00,,,0.00,648.000000,,2013-09-11 18:02:00,
2013-09-11 12:42:00,72.0,36.0,-100.00,East,92,8.0,15.0,27,0.00,,,0.00,799.000000,,2013-09-11 18:42:00,
2013-09-11 12:52:00,72.0,36.0,-100.00,East,92,8.0,15.0,27,0.00,,,0.00,799.000000,,2013-09-11 18:52:00,
2013-09-11 13:01:00,72.0,36.0,-100.00,East,92,8.0,15.0,27,0.00,,,0.00,799.000000,,2013-09-11 19:01:00,
2013-09-11 13:42:00,73.0,35.0,-100.00,SE,140,11.0,20.0,25,0.00,,,0.00,903.000000,,2013-09-11 19:42:00,
2013-09-11 13:53:00,73.0,35.0,-100.00,SE,140,11.0,20.0,25,0.00,,,0.00,903.000000,,2013-09-11 19:53:00,
2013-09-11 14:02:00,73.0,35.0,-100.00,SE,140,11.0,20.0,25,0.00,,,0.00,903.000000,,2013-09-11 20:02:00,
2013-09-11 14:42:00,78.0,35.0,-100.00,ESE,122,8.0,16.0,21,0.00,,,0.00,941.000000,,2013-09-11 20:42:00,
2013-09-11 14:52:00,78.0,35.0,-100.00,ESE,122,8.0,16.0,21,0.00,,,0.00,941.000000,,2013-09-11 20:52:00,
2013-09-11 15:02:00,78.0,35.0,-100.00,ESE,122,8.0,16.0,21,0.00,,,0.00,941.000000,,2013-09-11 21:02:00,
2013-09-11 15:44:00,76.0,29.0,-100.00,SE,137,12.0,19.0,18,0.00,,,0.00,923.000000,,2013-09-11 21:44:00,
2013-09-11 15:54:00,76.0,29.0,-100.00,SE,137,12.0,19.0,18,0.00,,,0.00,923.000000,,2013-09-11 21:54:00,
2013-09-11 16:04:00,76.0,29.0,-100.00,SE,137,12.0,19.0,18,0.00,,,0.00,923.000000,,2013-09-11 22:04:00,
2013-09-11 16:43:00,77.0,34.0,-100.00,SE,136,9.0,18.0,21,0.00,,,0.00,845.000000,,2013-09-11 22:43:00,
2013-09-11 16:54:00,77.0,34.0,-100.00,SE,136,9.0,18.0,21,0.00,,,0.00,845.000000,,2013-09-11 22:54:00,
2013-09-11 17:03:00,77.0,34.0,-100.00,SE,136,9.0,18.0,21,0.00,,,0.00,845.000000,,2013-09-11 23:03:00,
2013-09-11 17:42:00,77.0,32.0,-100.00,ESE,123,10.0,17.0,19,0.00,,,0.00,699.000000,,2013-09-11 23:42:00,
2013-09-11 17:53:00,77.0,32.0,-100.00,ESE,123,10.0,17.0,19,0.00,,,0.00,699.000000,,2013-09-11 23:53:00,
2013-09-11 18:01:00,77.0,32.0,-100.00,ESE,123,10.0,17.0,19,0.00,,,0.00,699.000000,,2013-09-12 00:01:00,
2013-09-11 18:42:00,75.0,32.0,-100.00,ESE,108,10.0,15.0,21,0.00,,,-99.99,500.000000,,2013-09-12 00:42:00,
2013-09-11 18:52:00,75.0,32.0,-100.00,ESE,108,10.0,15.0,21,0.00,,,-99.99,500.000000,,2013-09-12 00:52:00,
2013-09-11 19:01:00,75.0,32.0,-100.00,ESE,108,10.0,15.0,21,0.00,,,-99.99,500.000000,,2013-09-12 01:01:00,
2013-09-11 19:42:00,72.0,33.0,-100.00,ENE,75,9.0,16.0,24,0.00,,,0.00,276.000000,,2013-09-12 01:42:00,
2013-09-11 19:52:00,72.0,33.0,-100.00,ENE,75,9.0,16.0,24,0.00,,,0.00,276.000000,,2013-09-12 01:52:00,
2013-09-11 20:03:00,72.0,33.0,-100.00,ENE,75,9.0,16.0,24,0.00,,,0.00,276.000000,,2013-09-12 02:03:00,
2013-09-11 20:52:00,68.0,32.0,-100.00,NNE,28,8.0,16.0,26,0.00,,,0.00,59.000000,,2013-09-12 02:52:00,
2013-09-11 21:02:00,68.0,32.0,-100.00,NNE,28,8.0,16.0,26,0.00,,,0.00,59.000000,,2013-09-12 03:02:00,
2013-09-11 21:45:00,65.0,35.0,-100.00,North,9,8.0,12.0,33,0.00,,,-99.99,0.000000,,2013-09-12 03:45:00,
2013-09-11 21:55:00,65.0,35.0,-100.00,North,9,8.0,12.0,33,0.00,,,-99.99,0.000000,,2013-09-12 03:55:00,
2013-09-11 22:05:00,65.0,35.0,-100.00,North,9,8.0,12.0,33,0.00,,,-99.99,0.000000,,2013-09-12 04:05:00,
2013-09-11 22:44:00,62.0,39.0,-100.00,North,6,10.0,14.0,43,0.00,,,0.00,0.000000,,2013-09-12 04:44:00,
2013-09-11 22:54:00,62.0,39.0,-100.00,North,6,10.0,14.0,43,0.00,,,0.00,0.000000,,2013-09-12 04:54:00,
2013-09-11 23:03:00,62.0,39.0,-100.00,North,6,10.0,14.0,43,0.00,,,0.00,0.000000,,2013-09-12 05:03:00,
2013-09-11 23:43:00,60.0,41.0,-100.00,North,1,12.0,16.0,50,0.00,,,0.00,0.000000,,2013-09-12 05:43:00,
2013-09-11 23:53:00,60.0,41.0,-100.00,North,1,12.0,16.0,50,0.00,,,0.00,0.000000,,2013-09-12 05:53:00,